createdAt,value
2023-12-14T00:01:56.127Z,96660.34
2023-12-14T00:04:23.119Z,96663.47
2023-12-14T00:06:50.229Z,96655.59
2023-12-14T00:09:17.235Z,96659.28
2023-12-14T00:11:44.221Z,96661.16
2023-12-14T00:14:11.338Z,96658.41
2023-12-14T00:16:38.403Z,96666.00
2023-12-14T00:19:05.509Z,96668.78
2023-12-14T00:21:32.440Z,96680.44
2023-12-14T00:23:59.349Z,96699.94
2023-12-14T00:26:26.298Z,96709.78
2023-12-14T00:29:01.136Z,96712.56
2023-12-14T00:31:29.174Z,96726.31
2023-12-14T00:33:56.134Z,96727.03
2023-12-14T00:36:23.117Z,96741.00
2023-12-14T00:38:50.075Z,96719.03
2023-12-14T00:41:17.043Z,96717.88
2023-12-14T00:43:44.143Z,96705.81
2023-12-14T00:46:12.657Z,96700.34
2023-12-14T00:48:39.768Z,96700.13
2023-12-14T00:51:06.877Z,96696.44
2023-12-14T00:53:33.838Z,96697.66
2023-12-14T00:56:00.850Z,96700.22
2023-12-14T00:58:27.957Z,96702.28
2023-12-14T01:00:55.908Z,96704.38
2023-12-14T01:03:23.232Z,96695.69
2023-12-14T01:05:50.398Z,96707.09
2023-12-14T01:08:17.429Z,96712.47
2023-12-14T01:10:44.898Z,96721.16
2023-12-14T01:13:11.870Z,96715.69
2023-12-14T01:15:38.807Z,96711.09
2023-12-14T01:18:05.923Z,96722.06
2023-12-14T01:20:33.298Z,96725.56
2023-12-14T01:23:00.406Z,96737.16
2023-12-14T01:25:27.477Z,96738.59
2023-12-14T01:27:54.446Z,96747.56
2023-12-14T01:30:21.464Z,96749.06
2023-12-14T01:32:48.514Z,96746.34
2023-12-14T01:35:15.510Z,96746.63
2023-12-14T01:37:42.538Z,96749.28
2023-12-14T01:40:09.871Z,96750.31
2023-12-14T01:42:36.955Z,96749.50
2023-12-14T01:45:05.128Z,96745.22
2023-12-14T01:47:32.092Z,96749.06
2023-12-14T01:49:59.068Z,96749.31
2023-12-14T01:52:26.111Z,96740.63
2023-12-14T01:54:52.978Z,96735.75
2023-12-14T01:57:20.043Z,96739.16
2023-12-14T01:59:46.977Z,96731.31
2023-12-14T02:02:13.993Z,96732.31
2023-12-14T02:04:41.024Z,96738.09
2023-12-14T02:07:08.012Z,96735.53
2023-12-14T02:09:34.968Z,96742.75
2023-12-14T02:12:02.003Z,96741.06
2023-12-14T02:14:28.934Z,96746.16
2023-12-14T02:16:55.925Z,96745.44
2023-12-14T02:19:22.923Z,96739.75
2023-12-14T02:21:49.864Z,96743.88
2023-12-14T02:24:16.816Z,96742.78
2023-12-14T02:26:43.765Z,96743.66
2023-12-14T02:29:29.370Z,96736.25
2023-12-14T02:31:56.302Z,96730.03
2023-12-14T02:34:23.328Z,96727.81
2023-12-14T02:36:50.332Z,96726.28
2023-12-14T02:39:17.361Z,96731.47
2023-12-14T02:41:44.294Z,96725.97
2023-12-14T02:44:11.346Z,96722.84
2023-12-14T02:46:38.289Z,96728.25
2023-12-14T02:49:05.279Z,96734.62
2023-12-14T02:51:32.253Z,96737.19
2023-12-14T02:53:59.266Z,96741.25
2023-12-14T02:56:26.204Z,96748.44
2023-12-14T02:58:55.118Z,96750.22
2023-12-14T03:01:24.994Z,96760.34
2023-12-14T03:03:52.060Z,96765.31
2023-12-14T03:06:19.127Z,96776.34
2023-12-14T03:08:46.665Z,96780.47
2023-12-14T03:11:26.273Z,96784.44
2023-12-14T03:13:53.709Z,96782.22
2023-12-14T03:16:20.989Z,96783.97
2023-12-14T03:18:47.999Z,96792.16
2023-12-14T03:21:14.971Z,96796.84
2023-12-14T03:23:41.960Z,96800.06
2023-12-14T03:26:08.912Z,96804.94
2023-12-14T03:28:36.346Z,96800.78
2023-12-14T03:31:03.785Z,96807.50
2023-12-14T03:33:31.102Z,96805.91
2023-12-14T03:35:58.119Z,96807.94
2023-12-14T03:38:25.050Z,96810.88
2023-12-14T03:40:51.980Z,96819.59
2023-12-14T03:43:19.012Z,96818.94
2023-12-14T03:45:46.208Z,96821.31
2023-12-14T03:48:13.233Z,96825.72
2023-12-14T03:50:40.219Z,96825.00
2023-12-14T03:53:07.169Z,96822.72
2023-12-14T03:55:34.786Z,96833.72
2023-12-14T03:58:02.082Z,96836.22
2023-12-14T04:00:29.043Z,96840.31
2023-12-14T04:02:56.008Z,96834.41
2023-12-14T04:05:23.229Z,96839.66
2023-12-14T04:07:50.353Z,96841.38
2023-12-14T04:10:17.357Z,96849.50
2023-12-14T04:12:44.324Z,96841.12
2023-12-14T04:15:11.724Z,96859.75
2023-12-14T04:17:39.027Z,96857.38
2023-12-14T04:20:07.660Z,96862.16
2023-12-14T04:22:35.214Z,96863.88
2023-12-14T04:25:02.539Z,96872.66
2023-12-14T04:27:31.428Z,96875.87
2023-12-14T04:29:58.602Z,96872.94
2023-12-14T04:32:25.666Z,96864.62
2023-12-14T04:34:52.702Z,96865.19
2023-12-14T04:37:19.637Z,96872.22
2023-12-14T04:39:46.529Z,96870.13
2023-12-14T04:42:13.494Z,96867.91
2023-12-14T04:44:40.490Z,96874.00
2023-12-14T04:47:08.057Z,96873.63
2023-12-14T04:49:35.072Z,96868.25
2023-12-14T04:52:02.051Z,96874.94
2023-12-14T04:54:29.035Z,96879.72
2023-12-14T04:56:55.999Z,96882.59
2023-12-14T04:59:22.952Z,96887.22
2023-12-14T05:01:49.940Z,96896.06
2023-12-14T05:04:16.878Z,96897.41
2023-12-14T05:06:43.803Z,96895.22
2023-12-14T05:09:12.801Z,96899.06
2023-12-14T05:11:42.018Z,96902.56
2023-12-14T05:14:09.142Z,96904.44
2023-12-14T05:16:36.187Z,96915.03
2023-12-14T05:19:03.201Z,96913.78
2023-12-14T05:21:30.182Z,96915.84
2023-12-14T05:23:57.183Z,96913.91
2023-12-14T05:26:24.205Z,96914.31
2023-12-14T05:28:51.125Z,96924.78
2023-12-14T05:31:18.132Z,96932.72
2023-12-14T05:33:45.214Z,96941.31
2023-12-14T05:36:12.381Z,96949.12
2023-12-14T05:38:42.860Z,96949.75
2023-12-14T05:41:10.029Z,96948.38
2023-12-14T05:43:37.812Z,96950.56
2023-12-14T05:46:05.176Z,96957.84
2023-12-14T05:48:32.264Z,96967.16
2023-12-14T05:51:02.536Z,96970.22
2023-12-14T05:53:29.498Z,96971.72
2023-12-14T05:55:56.874Z,96983.44
2023-12-14T05:58:23.870Z,96988.50
2023-12-14T06:00:50.897Z,96991.31
2023-12-14T06:03:17.829Z,97003.38
2023-12-14T06:05:44.882Z,96998.13
2023-12-14T06:08:11.950Z,96997.22
2023-12-14T06:10:39.011Z,97002.91
2023-12-14T06:13:06.055Z,96999.47
2023-12-14T06:15:32.979Z,97001.97
2023-12-14T06:18:00.584Z,97008.91
2023-12-14T06:20:27.810Z,97004.69
2023-12-14T06:22:54.949Z,97009.91
2023-12-14T06:25:21.931Z,97026.28
2023-12-14T06:27:48.860Z,97022.19
2023-12-14T06:30:16.072Z,97021.34
2023-12-14T06:32:43.256Z,97025.44
2023-12-14T06:35:10.332Z,97029.94
2023-12-14T06:37:37.389Z,97042.13
2023-12-14T06:40:04.737Z,97044.94
2023-12-14T06:42:32.407Z,97048.44
2023-12-14T06:44:59.658Z,97060.06
2023-12-14T06:47:26.738Z,97058.31
2023-12-14T06:49:53.813Z,97062.25
2023-12-14T06:52:20.856Z,97067.34
2023-12-14T06:54:47.827Z,97076.50
2023-12-14T06:57:14.744Z,97074.47
2023-12-14T06:59:41.661Z,97081.34
2023-12-14T07:02:08.939Z,97084.88
2023-12-14T07:04:35.921Z,97080.97
2023-12-14T07:07:02.896Z,97083.00
2023-12-14T07:09:29.837Z,97100.50
2023-12-14T07:11:56.948Z,97102.03
2023-12-14T07:14:26.382Z,97109.41
2023-12-14T07:16:53.596Z,97109.84
2023-12-14T07:19:20.587Z,97122.13
2023-12-14T07:21:47.516Z,97124.56
2023-12-14T07:24:14.438Z,97122.47
2023-12-14T07:26:41.496Z,97130.78
2023-12-14T07:29:08.553Z,97129.47
2023-12-14T07:31:35.848Z,97132.72
2023-12-14T07:34:02.810Z,97129.81
2023-12-14T07:36:29.808Z,97128.37
2023-12-14T07:38:56.934Z,97137.09
2023-12-14T07:41:28.014Z,97139.78
2023-12-14T07:43:55.089Z,97141.44
2023-12-14T07:46:22.394Z,97150.50
2023-12-14T07:48:49.434Z,97148.16
2023-12-14T07:51:16.378Z,97151.69
2023-12-14T07:53:44.033Z,97153.62
2023-12-14T07:56:13.124Z,97161.25
2023-12-14T07:58:40.155Z,97172.16
2023-12-14T08:01:07.431Z,97172.34
2023-12-14T08:03:34.525Z,97173.28
2023-12-14T08:06:01.527Z,97168.69
2023-12-14T08:08:28.473Z,97172.47
2023-12-14T08:10:55.411Z,97183.28
2023-12-14T08:13:22.399Z,97180.06
2023-12-14T08:15:49.372Z,97181.56
2023-12-14T08:18:16.417Z,97177.62
2023-12-14T08:20:43.334Z,97183.31
2023-12-14T08:23:10.322Z,97176.88
2023-12-14T08:25:37.290Z,97188.56
2023-12-14T08:28:05.807Z,97192.03
2023-12-14T08:30:33.122Z,97199.03
2023-12-14T08:33:00.248Z,97200.97
2023-12-14T08:35:27.331Z,97206.22
2023-12-14T08:37:54.385Z,97209.44
2023-12-14T08:40:21.391Z,97213.28
2023-12-14T08:42:48.928Z,97217.72
2023-12-14T08:45:16.998Z,97222.47
2023-12-14T08:47:44.510Z,97229.28
2023-12-14T08:50:11.614Z,97229.19
2023-12-14T08:52:39.445Z,97238.31
2023-12-14T08:55:07.060Z,97243.56
2023-12-14T08:57:33.988Z,97239.84
2023-12-14T09:00:00.957Z,97244.22
2023-12-14T09:02:28.295Z,97241.97
2023-12-14T09:04:55.506Z,97250.50
2023-12-14T09:07:22.509Z,97245.47
2023-12-14T09:09:49.641Z,97254.81
2023-12-14T09:12:16.638Z,97264.66
2023-12-14T09:14:43.608Z,97268.94
2023-12-14T09:17:10.715Z,97260.97
2023-12-14T09:19:37.744Z,97266.28
2023-12-14T09:22:04.806Z,97269.12
2023-12-14T09:24:31.867Z,97261.69
2023-12-14T09:26:58.866Z,97274.94
2023-12-14T09:29:26.000Z,97282.34
2023-12-14T09:31:53.207Z,97275.91
2023-12-14T09:34:20.344Z,97283.28
2023-12-14T09:36:47.363Z,97292.38
2023-12-14T09:39:15.138Z,97283.19
2023-12-14T09:41:42.202Z,97288.47
2023-12-14T09:44:09.215Z,97293.63
2023-12-14T09:46:39.207Z,97297.53
2023-12-14T09:49:08.962Z,97301.06
2023-12-14T09:51:36.330Z,97298.88
2023-12-14T09:54:04.068Z,97305.34
2023-12-14T09:56:31.882Z,97302.87
2023-12-14T09:58:59.712Z,97310.66
2023-12-14T10:01:27.825Z,97308.16
2023-12-14T10:04:10.621Z,97297.78
2023-12-14T10:06:38.470Z,97296.22
2023-12-14T10:09:25.731Z,97300.16
2023-12-14T10:12:04.419Z,97301.31
2023-12-14T10:14:31.457Z,97305.59
2023-12-14T10:17:03.517Z,97313.84
2023-12-14T10:19:31.459Z,97320.63
2023-12-14T10:21:58.549Z,97324.41
2023-12-14T10:24:25.627Z,97318.03
2023-12-14T10:26:52.845Z,97323.41
2023-12-14T10:29:20.003Z,97320.69
2023-12-14T10:31:47.546Z,97331.78
2023-12-14T10:34:14.986Z,97326.19
2023-12-14T10:36:42.229Z,97335.66
2023-12-14T10:39:09.915Z,97331.34
2023-12-14T10:41:37.909Z,97337.03
2023-12-14T10:44:19.956Z,97348.50
2023-12-14T10:46:57.418Z,97349.22
2023-12-14T10:49:27.469Z,97339.56
2023-12-14T10:51:56.586Z,97337.59
2023-12-14T10:54:25.048Z,97331.56
2023-12-14T10:56:57.759Z,97350.06
2023-12-14T10:59:27.473Z,97344.69
2023-12-14T11:01:55.263Z,97349.59
2023-12-14T11:04:28.623Z,97352.03
2023-12-14T11:06:58.749Z,97349.28
2023-12-14T11:09:26.275Z,97347.25
2023-12-14T11:12:00.168Z,97334.78
2023-12-14T11:14:28.201Z,97354.16
2023-12-14T11:17:04.820Z,97349.59
2023-12-14T11:19:32.083Z,97341.66
2023-12-14T11:22:16.534Z,97349.53
2023-12-14T11:24:45.038Z,97345.00
2023-12-14T11:27:13.356Z,97353.97
2023-12-14T11:29:43.143Z,97354.81
2023-12-14T11:32:10.693Z,97357.94
2023-12-14T11:34:40.788Z,97357.34
2023-12-14T11:37:08.460Z,97353.31
2023-12-14T11:39:35.402Z,97363.00
2023-12-14T11:42:03.508Z,97371.28
2023-12-14T11:44:31.875Z,97372.47
2023-12-14T11:46:58.904Z,97377.53
2023-12-14T11:49:29.866Z,97377.09
2023-12-14T11:51:57.091Z,97388.59
2023-12-14T11:54:24.048Z,97388.59
2023-12-14T11:56:51.727Z,97385.44
2023-12-14T11:59:20.305Z,97391.94
2023-12-14T12:02:01.107Z,97395.13
2023-12-14T12:04:29.100Z,97391.00
2023-12-14T12:07:08.245Z,97400.34
2023-12-14T12:09:40.024Z,97390.34
2023-12-14T12:12:07.791Z,97384.03
2023-12-14T12:14:35.221Z,97399.50
2023-12-14T12:17:02.220Z,97409.16
2023-12-14T12:19:29.169Z,97416.53
2023-12-14T12:21:56.137Z,97416.87
2023-12-14T12:24:27.101Z,97418.34
2023-12-14T12:26:55.416Z,97423.31
2023-12-14T12:29:23.363Z,97439.31
2023-12-14T12:31:50.525Z,97420.66
2023-12-14T12:34:17.515Z,97433.56
2023-12-14T12:36:44.887Z,97431.13
2023-12-14T12:39:11.861Z,97426.97
2023-12-14T12:41:38.826Z,97441.03
2023-12-14T12:44:07.747Z,97441.56
2023-12-14T12:46:35.757Z,97447.59
2023-12-14T12:49:03.832Z,97452.47
2023-12-14T12:51:31.975Z,97455.47
2023-12-14T12:54:09.460Z,97458.44
2023-12-14T12:56:39.785Z,97461.97
2023-12-14T12:59:09.824Z,97460.97
2023-12-14T13:01:37.547Z,97461.97
2023-12-14T13:04:06.157Z,97463.56
2023-12-14T13:06:33.281Z,97452.25
2023-12-14T13:09:00.344Z,97455.75
2023-12-14T13:11:27.414Z,97466.47
2023-12-14T13:13:54.538Z,97474.56
2023-12-14T13:16:21.561Z,97463.22
2023-12-14T13:18:48.634Z,97472.16
2023-12-14T13:21:15.693Z,97471.53
2023-12-14T13:23:43.090Z,97473.13
2023-12-14T13:26:10.131Z,97472.38
2023-12-14T13:28:37.201Z,97473.50
2023-12-14T13:31:04.543Z,97469.09
2023-12-14T13:33:32.005Z,97477.22
2023-12-14T13:35:58.972Z,97470.78
2023-12-14T13:38:26.648Z,97479.25
2023-12-14T13:40:53.839Z,97475.69
2023-12-14T13:43:20.854Z,97480.75
2023-12-14T13:45:55.201Z,97486.91
2023-12-14T13:48:29.741Z,97492.66
2023-12-14T13:50:57.660Z,97493.13
2023-12-14T13:53:24.878Z,97504.06
2023-12-14T13:55:51.987Z,97511.59
2023-12-14T13:58:19.281Z,97507.88
2023-12-14T14:00:46.256Z,97516.66
2023-12-14T14:03:14.370Z,97527.91
2023-12-14T14:05:41.573Z,97525.13
2023-12-14T14:08:14.068Z,97524.97
2023-12-14T14:10:44.329Z,97524.34
2023-12-14T14:13:11.300Z,97531.37
2023-12-14T14:15:38.269Z,97527.59
2023-12-14T14:18:05.343Z,97534.47
2023-12-14T14:20:32.445Z,97532.94
2023-12-14T14:23:00.958Z,97544.72
2023-12-14T14:25:28.206Z,97549.72
2023-12-14T14:27:55.103Z,97560.25
2023-12-14T14:30:23.423Z,97565.75
2023-12-14T14:32:50.489Z,97552.41
2023-12-14T14:35:18.006Z,97558.44
2023-12-14T14:37:47.420Z,97565.47
2023-12-14T14:40:15.069Z,97572.72
2023-12-14T14:42:42.656Z,97566.59
2023-12-14T14:45:10.544Z,97575.78
2023-12-14T14:47:38.011Z,97577.72
2023-12-14T14:50:08.250Z,97591.41
2023-12-14T14:52:35.996Z,97597.00
2023-12-14T14:55:03.284Z,97609.47
2023-12-14T14:57:30.366Z,97611.16
2023-12-14T14:59:57.286Z,97616.72
2023-12-14T15:02:25.194Z,97612.88
2023-12-14T15:04:52.325Z,97621.19
2023-12-14T15:07:19.732Z,97630.53
2023-12-14T15:09:46.680Z,97636.66
2023-12-14T15:12:13.657Z,97643.66
2023-12-14T15:14:40.557Z,97647.00
2023-12-14T15:17:07.604Z,97651.31
2023-12-14T15:19:34.614Z,97653.72
2023-12-14T15:22:01.503Z,97651.69
2023-12-14T15:24:28.432Z,97650.97
2023-12-14T15:26:55.437Z,97652.81
2023-12-14T15:29:22.731Z,97664.16
2023-12-14T15:31:51.078Z,97666.38
2023-12-14T15:34:19.858Z,97669.72
2023-12-14T15:36:46.919Z,97682.81
2023-12-14T15:39:13.829Z,97681.81
2023-12-14T15:41:40.797Z,97695.72
2023-12-14T15:44:07.794Z,97709.25
2023-12-14T15:46:34.841Z,97711.06
2023-12-14T15:49:02.950Z,97709.63
2023-12-14T15:51:29.936Z,97720.13
2023-12-14T15:53:58.114Z,97726.06
2023-12-14T15:56:26.255Z,97737.66
2023-12-14T15:58:53.258Z,97742.56
2023-12-14T16:01:22.474Z,97749.94
2023-12-14T16:03:49.470Z,97755.38
2023-12-14T16:06:17.351Z,97759.69
2023-12-14T16:08:44.361Z,97752.19
2023-12-14T16:11:12.308Z,97767.13
2023-12-14T16:13:39.258Z,97775.87
2023-12-14T16:16:06.503Z,97775.56
2023-12-14T16:18:33.658Z,97776.34
2023-12-14T16:21:01.151Z,97783.81
2023-12-14T16:23:28.105Z,97793.56
2023-12-14T16:25:58.893Z,97795.59
2023-12-14T16:28:25.974Z,97802.72
2023-12-14T16:30:52.998Z,97806.37
2023-12-14T16:33:20.097Z,97821.94
2023-12-14T16:35:47.164Z,97822.34
2023-12-14T16:38:14.401Z,97835.09
2023-12-14T16:40:41.454Z,97831.63
2023-12-14T16:43:08.454Z,97838.72
2023-12-14T16:45:35.385Z,97843.63
2023-12-14T16:48:03.253Z,97850.28
2023-12-14T16:50:30.272Z,97843.75
2023-12-14T16:52:57.257Z,97851.41
2023-12-14T16:55:25.175Z,97847.22
2023-12-14T16:57:52.127Z,97851.97
2023-12-14T17:00:19.386Z,97860.69
2023-12-14T17:02:46.369Z,97867.25
2023-12-14T17:05:13.686Z,97872.16
2023-12-14T17:07:40.629Z,97871.59
2023-12-14T17:10:08.159Z,97871.38
2023-12-14T17:12:35.434Z,97881.81
2023-12-14T17:15:02.992Z,97890.91
2023-12-14T17:17:35.453Z,97887.72
2023-12-14T17:20:02.721Z,97886.44
2023-12-14T17:22:34.443Z,97891.88
2023-12-14T17:25:01.574Z,97898.28
2023-12-14T17:27:28.491Z,97899.69
2023-12-14T17:29:55.465Z,97907.31
2023-12-14T17:32:22.529Z,97909.66
2023-12-14T17:34:49.566Z,97903.38
2023-12-14T17:37:16.866Z,97908.25
2023-12-14T17:39:45.154Z,97910.22
2023-12-14T17:42:19.224Z,97907.91
2023-12-14T17:44:47.266Z,97910.84
2023-12-14T17:47:14.275Z,97915.75
2023-12-14T17:49:41.240Z,97909.00
2023-12-14T17:52:08.152Z,97911.88
2023-12-14T17:54:38.463Z,97924.06
2023-12-14T17:57:05.491Z,97927.94
2023-12-14T17:59:32.479Z,97937.78
2023-12-14T18:01:59.474Z,97945.47
2023-12-14T18:04:26.468Z,97949.50
2023-12-14T18:06:53.468Z,97944.31
2023-12-14T18:09:20.425Z,97949.47
2023-12-14T18:11:47.472Z,97949.78
2023-12-14T18:14:14.535Z,97951.81
2023-12-14T18:16:41.776Z,97962.47
2023-12-14T18:19:08.983Z,97967.00
2023-12-14T18:21:36.240Z,97984.97
2023-12-14T18:24:04.971Z,97978.47
2023-12-14T18:26:32.101Z,97982.16
2023-12-14T18:28:59.110Z,97984.91
2023-12-14T18:31:26.412Z,97986.84
2023-12-14T18:33:53.971Z,97985.69
2023-12-14T18:36:21.121Z,97995.44
2023-12-14T18:38:48.082Z,97994.25
2023-12-14T18:41:15.164Z,97997.16
2023-12-14T18:43:42.846Z,97995.78
2023-12-14T18:46:10.064Z,98007.09
2023-12-14T18:48:38.592Z,98001.03
2023-12-14T18:51:06.006Z,98001.16
2023-12-14T18:53:33.081Z,98007.78
2023-12-14T18:56:00.093Z,98014.25
2023-12-14T18:58:27.026Z,98017.56
2023-12-14T19:00:54.028Z,98017.78
2023-12-14T19:03:21.045Z,98015.31
2023-12-14T19:05:48.089Z,98018.28
2023-12-14T19:08:15.109Z,98026.28
2023-12-14T19:10:42.119Z,98027.81
2023-12-14T19:13:09.001Z,98029.22
2023-12-14T19:15:35.948Z,98038.25
2023-12-14T19:18:03.042Z,98036.06
2023-12-14T19:20:30.229Z,98031.00
2023-12-14T19:22:57.343Z,98032.03
2023-12-14T19:25:24.233Z,98044.44
2023-12-14T19:27:54.062Z,98039.88
2023-12-14T19:30:22.068Z,98039.91
2023-12-14T19:32:49.719Z,98049.78
2023-12-14T19:35:16.998Z,98050.00
2023-12-14T19:37:47.203Z,98054.22
2023-12-14T19:40:15.038Z,98055.09
2023-12-14T19:42:41.955Z,98056.34
2023-12-14T19:45:09.411Z,98063.09
2023-12-14T19:47:40.656Z,98063.97
2023-12-14T19:50:09.332Z,98067.00
2023-12-14T19:52:37.334Z,98075.84
2023-12-14T19:55:05.546Z,98070.75
2023-12-14T19:57:32.626Z,98071.13
2023-12-14T19:59:59.626Z,98070.97
2023-12-14T20:02:26.657Z,98071.41
2023-12-14T20:04:53.686Z,98071.16
2023-12-14T20:07:20.697Z,98073.03
2023-12-14T20:09:57.585Z,98079.03
2023-12-14T20:12:29.573Z,98085.66
2023-12-14T20:14:56.561Z,98085.75
2023-12-14T20:17:24.020Z,98093.97
2023-12-14T20:19:50.939Z,98094.81
2023-12-14T20:22:20.929Z,98097.31
2023-12-14T20:24:49.306Z,98095.34
2023-12-14T20:27:16.597Z,98102.47
2023-12-14T20:29:43.881Z,98104.84
2023-12-14T20:32:10.907Z,98103.91
2023-12-14T20:34:37.861Z,98097.41
2023-12-14T20:37:05.052Z,98104.31
2023-12-14T20:39:31.996Z,98107.41
2023-12-14T20:41:58.925Z,98115.22
2023-12-14T20:44:25.958Z,98122.75
2023-12-14T20:46:52.949Z,98127.28
2023-12-14T20:49:21.137Z,98135.41
2023-12-14T20:51:48.131Z,98129.00
2023-12-14T20:54:15.096Z,98132.13
2023-12-14T20:56:42.073Z,98134.50
2023-12-14T20:59:09.019Z,98137.00
2023-12-14T21:01:36.058Z,98145.62
2023-12-14T21:04:03.231Z,98142.84
2023-12-14T21:06:32.563Z,98141.75
2023-12-14T21:09:00.304Z,98150.31
2023-12-14T21:11:27.421Z,98147.97
2023-12-14T21:13:54.785Z,98152.69
2023-12-14T21:16:22.046Z,98147.31
2023-12-14T21:18:49.206Z,98156.59
2023-12-14T21:21:16.337Z,98159.16
2023-12-14T21:23:43.342Z,98155.50
2023-12-14T21:26:13.416Z,98160.03
2023-12-14T21:28:40.507Z,98166.63
2023-12-14T21:31:07.835Z,98164.66
2023-12-14T21:33:35.171Z,98170.53
2023-12-14T21:36:02.764Z,98184.34
2023-12-14T21:38:32.318Z,98186.47
2023-12-14T21:40:59.763Z,98191.84
2023-12-14T21:43:27.397Z,98192.66
2023-12-14T21:45:55.430Z,98195.44
2023-12-14T21:48:22.637Z,98196.88
2023-12-14T21:50:49.600Z,98189.72
2023-12-14T21:53:16.711Z,98205.66
2023-12-14T21:55:43.658Z,98204.16
2023-12-14T21:58:10.641Z,98207.16
2023-12-14T22:00:37.603Z,98221.19
2023-12-14T22:03:04.713Z,98214.81
2023-12-14T22:05:31.922Z,98218.59
2023-12-14T22:07:58.857Z,98209.91
2023-12-14T22:10:25.861Z,98211.19
2023-12-14T22:12:55.622Z,98215.16
2023-12-14T22:15:23.987Z,98221.75
2023-12-14T22:17:51.182Z,98235.22
2023-12-14T22:20:18.281Z,98243.22
2023-12-14T22:22:45.266Z,98234.72
2023-12-14T22:25:12.320Z,98235.03
2023-12-14T22:27:39.435Z,98238.00
2023-12-14T22:30:09.018Z,98234.59
2023-12-14T22:32:36.272Z,98244.81
2023-12-14T22:35:03.446Z,98243.22
2023-12-14T22:37:30.450Z,98246.44
2023-12-14T22:39:57.381Z,98249.38
2023-12-14T22:42:24.313Z,98260.81
2023-12-14T22:44:51.269Z,98266.78
2023-12-14T22:47:18.273Z,98267.28
2023-12-14T22:49:45.702Z,98266.03
2023-12-14T22:52:12.615Z,98273.09
2023-12-14T22:54:40.686Z,98270.56
2023-12-14T22:57:08.093Z,98278.44
2023-12-14T22:59:39.528Z,98292.28
2023-12-14T23:02:07.191Z,98287.84
2023-12-14T23:04:35.392Z,98293.56
2023-12-14T23:07:03.394Z,98288.25
2023-12-14T23:09:30.512Z,98292.22
2023-12-14T23:11:57.458Z,98284.09
2023-12-14T23:14:24.627Z,98291.13
2023-12-14T23:16:51.952Z,98291.53
2023-12-14T23:19:19.922Z,98293.72
2023-12-14T23:21:46.934Z,98286.50
2023-12-14T23:24:13.844Z,98295.19
2023-12-14T23:26:40.787Z,98296.97
2023-12-14T23:29:07.787Z,98293.59
2023-12-14T23:31:34.744Z,98300.03
2023-12-14T23:34:01.789Z,98299.19
2023-12-14T23:36:28.751Z,98301.16
2023-12-14T23:38:55.701Z,98297.00
2023-12-14T23:41:22.724Z,98302.19
2023-12-14T23:43:49.811Z,98310.06
2023-12-14T23:46:16.755Z,98307.00
2023-12-14T23:48:45.197Z,98314.97
2023-12-14T23:51:12.286Z,98311.41
2023-12-14T23:53:39.214Z,98322.75
2023-12-14T23:56:06.875Z,98326.00
2023-12-14T23:58:33.879Z,98329.69
